sensor_id;sensor_type;location;lat;lon;timestamp;pressure;altitude;pressure_sealevel;temperature;humidity
12793;BME280;6460;42.684;23.260;2024-02-15T00:00:01;95012.53;;;3.95;79.05
12793;BME280;6460;42.684;23.260;2024-02-15T00:02:30;95007.31;;;3.68;79.31
12793;BME280;6460;42.684;23.260;2024-02-15T00:04:58;95019.59;;;3.64;80.17
12793;BME280;6460;42.684;23.260;2024-02-15T00:07:27;95016.53;;;3.70;79.88
12793;BME280;6460;42.684;23.260;2024-02-15T00:09:56;95015.81;;;3.56;79.85
12793;BME280;6460;42.684;23.260;2024-02-15T00:12:25;95015.88;;;3.65;79.97
12793;BME280;6460;42.684;23.260;2024-02-15T00:14:53;95014.53;;;3.54;80.11
12793;BME280;6460;42.684;23.260;2024-02-15T00:17:24;95014.84;;;3.74;79.34
12793;BME280;6460;42.684;23.260;2024-02-15T00:19:52;95011.03;;;3.67;79.55
12793;BME280;6460;42.684;23.260;2024-02-15T00:22:21;95023.56;;;3.66;79.18
12793;BME280;6460;42.684;23.260;2024-02-15T00:24:50;95015.00;;;3.69;78.97
12793;BME280;6460;42.684;23.260;2024-02-15T00:27:19;95022.88;;;3.61;78.74
12793;BME280;6460;42.684;23.260;2024-02-15T00:29:47;95032.28;;;3.67;79.78
12793;BME280;6460;42.684;23.260;2024-02-15T00:32:16;95041.13;;;3.54;79.06
12793;BME280;6460;42.684;23.260;2024-02-15T00:34:44;95032.84;;;3.78;79.28
12793;BME280;6460;42.684;23.260;2024-02-15T00:37:13;95030.09;;;3.83;79.03
12793;BME280;6460;42.684;23.260;2024-02-15T00:39:41;95027.53;;;3.78;78.78
12793;BME280;6460;42.684;23.260;2024-02-15T00:42:10;95022.28;;;3.64;79.33
12793;BME280;6460;42.684;23.260;2024-02-15T00:44:39;95029.16;;;3.65;79.12
12793;BME280;6460;42.684;23.260;2024-02-15T00:47:09;95035.34;;;3.74;79.41
12793;BME280;6460;42.684;23.260;2024-02-15T00:49:37;95029.06;;;3.70;78.70
12793;BME280;6460;42.684;23.260;2024-02-15T00:52:06;95040.75;;;3.83;78.58
12793;BME280;6460;42.684;23.260;2024-02-15T00:54:34;95020.97;;;3.75;78.83
12793;BME280;6460;42.684;23.260;2024-02-15T00:57:03;95025.53;;;3.61;79.07
12793;BME280;6460;42.684;23.260;2024-02-15T00:59:32;95020.59;;;3.90;77.83
12793;BME280;6460;42.684;23.260;2024-02-15T01:02:01;95020.59;;;3.68;78.85
12793;BME280;6460;42.684;23.260;2024-02-15T01:04:30;95024.22;;;3.72;78.77
12793;BME280;6460;42.684;23.260;2024-02-15T01:06:58;95027.09;;;3.62;79.99
12793;BME280;6460;42.684;23.260;2024-02-15T01:09:26;95031.97;;;3.82;78.55
12793;BME280;6460;42.684;23.260;2024-02-15T01:11:54;95019.25;;;3.57;78.83
12793;BME280;6460;42.684;23.260;2024-02-15T01:14:22;95034.09;;;3.58;79.16
12793;BME280;6460;42.684;23.260;2024-02-15T01:16:52;95031.47;;;3.80;78.34
12793;BME280;6460;42.684;23.260;2024-02-15T01:19:20;95028.75;;;3.71;78.41
12793;BME280;6460;42.684;23.260;2024-02-15T01:21:48;95019.59;;;3.64;78.83
12793;BME280;6460;42.684;23.260;2024-02-15T01:24:16;95021.63;;;3.81;78.72
12793;BME280;6460;42.684;23.260;2024-02-15T01:26:44;95015.94;;;3.73;79.88
12793;BME280;6460;42.684;23.260;2024-02-15T01:29:14;95016.53;;;3.93;78.86
12793;BME280;6460;42.684;23.260;2024-02-15T01:31:42;95026.16;;;3.80;77.73
12793;BME280;6460;42.684;23.260;2024-02-15T01:34:12;95018.31;;;3.75;78.60
12793;BME280;6460;42.684;23.260;2024-02-15T01:36:40;95029.94;;;3.65;78.25
12793;BME280;6460;42.684;23.260;2024-02-15T01:39:08;95029.16;;;3.65;79.10
12793;BME280;6460;42.684;23.260;2024-02-15T01:41:36;95014.16;;;3.47;79.70
12793;BME280;6460;42.684;23.260;2024-02-15T01:44:04;95024.63;;;3.65;79.59
12793;BME280;6460;42.684;23.260;2024-02-15T01:46:33;95022.75;;;3.44;80.13
12793;BME280;6460;42.684;23.260;2024-02-15T01:49:01;95018.16;;;3.58;79.02
12793;BME280;6460;42.684;23.260;2024-02-15T01:51:32;95021.97;;;3.65;79.06
12793;BME280;6460;42.684;23.260;2024-02-15T01:54:02;95028.56;;;3.68;79.21
12793;BME280;6460;42.684;23.260;2024-02-15T01:56:30;95028.31;;;3.56;80.07
12793;BME280;6460;42.684;23.260;2024-02-15T01:58:58;95033.97;;;3.41;79.98
12793;BME280;6460;42.684;23.260;2024-02-15T02:01:28;95025.66;;;3.56;80.04
12793;BME280;6460;42.684;23.260;2024-02-15T02:03:58;95019.31;;;3.65;79.32
12793;BME280;6460;42.684;23.260;2024-02-15T02:06:27;95028.19;;;3.61;79.37
12793;BME280;6460;42.684;23.260;2024-02-15T02:08:58;95029.69;;;3.53;79.78
12793;BME280;6460;42.684;23.260;2024-02-15T02:11:28;95031.50;;;3.44;80.63
12793;BME280;6460;42.684;23.260;2024-02-15T02:13:57;95028.06;;;3.30;80.31
12793;BME280;6460;42.684;23.260;2024-02-15T02:16:25;95040.81;;;3.55;80.05
12793;BME280;6460;42.684;23.260;2024-02-15T02:18:55;95027.72;;;3.45;80.03
12793;BME280;6460;42.684;23.260;2024-02-15T02:21:23;95037.22;;;3.38;80.06
12793;BME280;6460;42.684;23.260;2024-02-15T02:23:53;95045.06;;;3.43;79.98
12793;BME280;6460;42.684;23.260;2024-02-15T02:26:25;95036.50;;;3.46;80.33
12793;BME280;6460;42.684;23.260;2024-02-15T02:28:53;95034.69;;;3.55;79.77
12793;BME280;6460;42.684;23.260;2024-02-15T02:31:22;95036.69;;;3.49;79.86
12793;BME280;6460;42.684;23.260;2024-02-15T02:33:51;95030.81;;;3.39;79.71
12793;BME280;6460;42.684;23.260;2024-02-15T02:36:20;95038.00;;;3.38;80.17
12793;BME280;6460;42.684;23.260;2024-02-15T02:38:48;95038.69;;;3.30;79.94
12793;BME280;6460;42.684;23.260;2024-02-15T02:41:16;95043.63;;;3.23;80.73
12793;BME280;6460;42.684;23.260;2024-02-15T02:43:47;95044.94;;;3.48;79.54
12793;BME280;6460;42.684;23.260;2024-02-15T02:46:15;95044.53;;;3.54;79.26
12793;BME280;6460;42.684;23.260;2024-02-15T02:48:43;95038.81;;;3.61;79.15
12793;BME280;6460;42.684;23.260;2024-02-15T02:51:11;95044.53;;;3.54;79.57
12793;BME280;6460;42.684;23.260;2024-02-15T02:53:39;95048.03;;;3.41;80.14
12793;BME280;6460;42.684;23.260;2024-02-15T02:56:07;95050.25;;;3.48;79.62
12793;BME280;6460;42.684;23.260;2024-02-15T02:58:36;95055.50;;;3.26;81.04
12793;BME280;6460;42.684;23.260;2024-02-15T03:01:10;95047.91;;;3.46;80.08
12793;BME280;6460;42.684;23.260;2024-02-15T03:03:39;95052.06;;;3.39;79.44
12793;BME280;6460;42.684;23.260;2024-02-15T03:06:07;95046.13;;;3.42;80.22
12793;BME280;6460;42.684;23.260;2024-02-15T03:08:35;95048.59;;;3.52;79.77
12793;BME280;6460;42.684;23.260;2024-02-15T03:11:03;95054.94;;;3.29;80.04
12793;BME280;6460;42.684;23.260;2024-02-15T03:13:31;95045.19;;;3.38;80.33
12793;BME280;6460;42.684;23.260;2024-02-15T03:16:00;95055.56;;;3.48;80.20
12793;BME280;6460;42.684;23.260;2024-02-15T03:18:30;95050.59;;;3.33;80.76
12793;BME280;6460;42.684;23.260;2024-02-15T03:20:58;95048.44;;;3.35;80.97
12793;BME280;6460;42.684;23.260;2024-02-15T03:23:26;95059.59;;;3.09;80.65
12793;BME280;6460;42.684;23.260;2024-02-15T03:25:55;95053.09;;;3.15;81.33
12793;BME280;6460;42.684;23.260;2024-02-15T03:28:23;95057.81;;;3.18;81.53
12793;BME280;6460;42.684;23.260;2024-02-15T03:30:50;95058.69;;;3.28;81.32
12793;BME280;6460;42.684;23.260;2024-02-15T03:33:18;95065.13;;;3.35;80.65
12793;BME280;6460;42.684;23.260;2024-02-15T03:35:48;95058.56;;;3.33;80.95
12793;BME280;6460;42.684;23.260;2024-02-15T03:38:16;95062.31;;;3.32;81.28
12793;BME280;6460;42.684;23.260;2024-02-15T03:40:44;95055.22;;;3.41;81.09
12793;BME280;6460;42.684;23.260;2024-02-15T03:43:12;95056.78;;;3.42;81.30
12793;BME280;6460;42.684;23.260;2024-02-15T03:45:41;95064.28;;;3.26;81.52
12793;BME280;6460;42.684;23.260;2024-02-15T03:48:10;95069.56;;;3.40;80.74
12793;BME280;6460;42.684;23.260;2024-02-15T03:50:39;95066.03;;;3.44;80.34
12793;BME280;6460;42.684;23.260;2024-02-15T03:53:09;95067.94;;;3.03;81.60
12793;BME280;6460;42.684;23.260;2024-02-15T03:55:38;95067.72;;;3.13;82.37
12793;BME280;6460;42.684;23.260;2024-02-15T03:58:07;95065.44;;;3.34;81.98
12793;BME280;6460;42.684;23.260;2024-02-15T04:00:35;95065.66;;;3.24;81.39
12793;BME280;6460;42.684;23.260;2024-02-15T04:03:05;95072.34;;;3.07;81.62
12793;BME280;6460;42.684;23.260;2024-02-15T04:05:33;95066.66;;;3.28;81.62
12793;BME280;6460;42.684;23.260;2024-02-15T04:08:01;95068.91;;;3.20;80.76
12793;BME280;6460;42.684;23.260;2024-02-15T04:10:32;95071.97;;;3.28;80.81
12793;BME280;6460;42.684;23.260;2024-02-15T04:13:01;95074.13;;;2.98;81.63
12793;BME280;6460;42.684;23.260;2024-02-15T04:15:29;95075.31;;;3.06;81.75
12793;BME280;6460;42.684;23.260;2024-02-15T04:17:57;95076.00;;;3.11;81.12
12793;BME280;6460;42.684;23.260;2024-02-15T04:20:26;95073.75;;;3.18;81.11
12793;BME280;6460;42.684;23.260;2024-02-15T04:22:55;95072.94;;;3.04;82.55
12793;BME280;6460;42.684;23.260;2024-02-15T04:25:25;95067.25;;;3.25;81.92
12793;BME280;6460;42.684;23.260;2024-02-15T04:27:56;95077.06;;;3.10;81.06
12793;BME280;6460;42.684;23.260;2024-02-15T04:30:29;95082.97;;;3.07;81.90
12793;BME280;6460;42.684;23.260;2024-02-15T04:32:57;95082.38;;;2.83;82.40
12793;BME280;6460;42.684;23.260;2024-02-15T04:35:26;95090.44;;;2.64;83.92
12793;BME280;6460;42.684;23.260;2024-02-15T04:37:54;95080.56;;;2.65;83.45
12793;BME280;6460;42.684;23.260;2024-02-15T04:40:23;95082.53;;;2.59;83.47
12793;BME280;6460;42.684;23.260;2024-02-15T04:42:51;95083.44;;;2.55;83.70
12793;BME280;6460;42.684;23.260;2024-02-15T04:45:21;95089.06;;;2.67;83.80
12793;BME280;6460;42.684;23.260;2024-02-15T04:47:49;95087.09;;;2.73;83.55
12793;BME280;6460;42.684;23.260;2024-02-15T04:50:19;95088.81;;;2.50;84.71
12793;BME280;6460;42.684;23.260;2024-02-15T04:52:47;95100.56;;;2.76;83.75
12793;BME280;6460;42.684;23.260;2024-02-15T04:55:16;95116.75;;;2.61;84.60
12793;BME280;6460;42.684;23.260;2024-02-15T04:57:44;95107.03;;;2.70;84.17
12793;BME280;6460;42.684;23.260;2024-02-15T05:00:13;95115.66;;;2.62;84.06
12793;BME280;6460;42.684;23.260;2024-02-15T05:02:43;95099.00;;;2.43;84.67
12793;BME280;6460;42.684;23.260;2024-02-15T05:05:12;95100.78;;;2.47;85.30
12793;BME280;6460;42.684;23.260;2024-02-15T05:07:41;95105.72;;;2.54;84.60
12793;BME280;6460;42.684;23.260;2024-02-15T05:10:09;95114.59;;;2.63;84.58
12793;BME280;6460;42.684;23.260;2024-02-15T05:12:38;95107.53;;;2.58;84.54
12793;BME280;6460;42.684;23.260;2024-02-15T05:15:07;95122.25;;;2.64;84.62
12793;BME280;6460;42.684;23.260;2024-02-15T05:17:37;95118.31;;;2.62;85.07
12793;BME280;6460;42.684;23.260;2024-02-15T05:20:09;95117.56;;;2.75;83.98
12793;BME280;6460;42.684;23.260;2024-02-15T05:22:39;95124.81;;;2.70;83.87
12793;BME280;6460;42.684;23.260;2024-02-15T05:25:10;95126.69;;;2.37;84.42
12793;BME280;6460;42.684;23.260;2024-02-15T05:27:38;95117.34;;;2.58;85.38
12793;BME280;6460;42.684;23.260;2024-02-15T05:30:09;95118.09;;;2.45;85.34
12793;BME280;6460;42.684;23.260;2024-02-15T05:32:39;95118.66;;;2.42;85.65
12793;BME280;6460;42.684;23.260;2024-02-15T05:35:11;95127.00;;;2.67;85.10
12793;BME280;6460;42.684;23.260;2024-02-15T05:37:40;95119.72;;;2.41;85.01
12793;BME280;6460;42.684;23.260;2024-02-15T05:40:11;95128.53;;;2.68;84.32
12793;BME280;6460;42.684;23.260;2024-02-15T05:42:42;95128.66;;;2.63;85.24
12793;BME280;6460;42.684;23.260;2024-02-15T05:45:29;95137.72;;;2.44;85.64
12793;BME280;6460;42.684;23.260;2024-02-15T05:47:58;95142.69;;;2.64;84.60
12793;BME280;6460;42.684;23.260;2024-02-15T05:50:27;95140.38;;;2.44;84.53
12793;BME280;6460;42.684;23.260;2024-02-15T05:52:56;95139.31;;;2.45;85.76
12793;BME280;6460;42.684;23.260;2024-02-15T05:55:25;95149.84;;;2.31;85.71
12793;BME280;6460;42.684;23.260;2024-02-15T05:57:55;95145.41;;;2.59;85.43
12793;BME280;6460;42.684;23.260;2024-02-15T06:00:22;95148.13;;;2.73;85.17
12793;BME280;6460;42.684;23.260;2024-02-15T06:02:49;95154.47;;;2.58;84.75
12793;BME280;6460;42.684;23.260;2024-02-15T06:05:17;95156.22;;;2.49;85.34
12793;BME280;6460;42.684;23.260;2024-02-15T06:07:46;95153.00;;;2.52;85.00
12793;BME280;6460;42.684;23.260;2024-02-15T06:10:13;95172.88;;;2.36;85.54
12793;BME280;6460;42.684;23.260;2024-02-15T06:12:41;95157.03;;;2.63;85.32
12793;BME280;6460;42.684;23.260;2024-02-15T06:15:10;95160.53;;;2.45;85.61
12793;BME280;6460;42.684;23.260;2024-02-15T06:17:41;95166.75;;;2.54;85.24
12793;BME280;6460;42.684;23.260;2024-02-15T06:20:11;95171.13;;;2.45;85.18
12793;BME280;6460;42.684;23.260;2024-02-15T06:22:40;95165.31;;;2.61;85.44
12793;BME280;6460;42.684;23.260;2024-02-15T06:25:09;95171.38;;;2.62;84.71
12793;BME280;6460;42.684;23.260;2024-02-15T06:27:37;95176.69;;;2.62;84.66
12793;BME280;6460;42.684;23.260;2024-02-15T06:30:07;95169.66;;;2.71;84.23
12793;BME280;6460;42.684;23.260;2024-02-15T06:32:52;95184.56;;;2.67;84.43
12793;BME280;6460;42.684;23.260;2024-02-15T06:35:37;95190.63;;;2.54;85.16
12793;BME280;6460;42.684;23.260;2024-02-15T06:38:21;95179.78;;;2.50;84.57
12793;BME280;6460;42.684;23.260;2024-02-15T06:41:07;95180.63;;;2.64;84.58
12793;BME280;6460;42.684;23.260;2024-02-15T06:43:44;95179.91;;;2.59;85.28
12793;BME280;6460;42.684;23.260;2024-02-15T06:46:11;95183.91;;;2.75;84.65
12793;BME280;6460;42.684;23.260;2024-02-15T06:49:01;95187.28;;;2.81;85.10
12793;BME280;6460;42.684;23.260;2024-02-15T06:51:32;95190.91;;;2.85;84.25
12793;BME280;6460;42.684;23.260;2024-02-15T07:01:02;95189.34;;;2.97;83.84
12793;BME280;6460;42.684;23.260;2024-02-15T07:03:30;95183.44;;;2.87;83.22
12793;BME280;6460;42.684;23.260;2024-02-15T07:06:00;95195.84;;;2.91;83.89
12793;BME280;6460;42.684;23.260;2024-02-15T07:08:41;95186.69;;;2.97;82.83
12793;BME280;6460;42.684;23.260;2024-02-15T07:11:12;95185.94;;;3.10;82.63
12793;BME280;6460;42.684;23.260;2024-02-15T07:13:49;95182.69;;;3.00;83.36
12793;BME280;6460;42.684;23.260;2024-02-15T07:16:25;95184.69;;;3.22;82.19
12793;BME280;6460;42.684;23.260;2024-02-15T07:19:06;95183.06;;;2.93;81.92
12793;BME280;6460;42.684;23.260;2024-02-15T07:21:36;95186.22;;;2.95;82.95
12793;BME280;6460;42.684;23.260;2024-02-15T07:24:17;95176.91;;;3.39;82.11
12793;BME280;6460;42.684;23.260;2024-02-15T07:26:45;95184.19;;;3.06;81.29
12793;BME280;6460;42.684;23.260;2024-02-15T07:32:37;95184.59;;;3.27;80.33
12793;BME280;6460;42.684;23.260;2024-02-15T07:35:06;95171.09;;;3.23;80.33
12793;BME280;6460;42.684;23.260;2024-02-15T07:38:07;95168.56;;;3.32;80.84
12793;BME280;6460;42.684;23.260;2024-02-15T07:44:06;95155.53;;;3.71;79.86
12793;BME280;6460;42.684;23.260;2024-02-15T07:46:33;95149.94;;;3.72;79.53
12793;BME280;6460;42.684;23.260;2024-02-15T07:51:53;95163.78;;;3.97;77.76
12793;BME280;6460;42.684;23.260;2024-02-15T07:54:20;95164.97;;;3.91;77.86
12793;BME280;6460;42.684;23.260;2024-02-15T07:56:53;95152.69;;;3.81;78.98
12793;BME280;6460;42.684;23.260;2024-02-15T07:59:35;95158.03;;;4.03;77.88
12793;BME280;6460;42.684;23.260;2024-02-15T08:02:10;95160.66;;;4.53;81.38
12793;BME280;6460;42.684;23.260;2024-02-15T08:04:54;95173.88;;;4.66;80.27
12793;BME280;6460;42.684;23.260;2024-02-15T08:07:22;95166.44;;;4.33;76.49
12793;BME280;6460;42.684;23.260;2024-02-15T08:09:57;95158.44;;;4.10;76.47
12793;BME280;6460;42.684;23.260;2024-02-15T08:12:28;95153.25;;;4.28;77.08
12793;BME280;6460;42.684;23.260;2024-02-15T08:14:57;95155.03;;;4.18;77.45
12793;BME280;6460;42.684;23.260;2024-02-15T08:17:26;95154.03;;;4.28;77.21
12793;BME280;6460;42.684;23.260;2024-02-15T08:20:02;95175.38;;;4.14;77.02
12793;BME280;6460;42.684;23.260;2024-02-15T08:22:34;95154.09;;;4.14;76.78
12793;BME280;6460;42.684;23.260;2024-02-15T08:25:10;95150.69;;;4.22;76.36
12793;BME280;6460;42.684;23.260;2024-02-15T08:27:46;95149.22;;;4.30;76.20
12793;BME280;6460;42.684;23.260;2024-02-15T08:30:34;95156.28;;;4.57;75.76
12793;BME280;6460;42.684;23.260;2024-02-15T08:33:03;95153.78;;;4.38;76.28
12793;BME280;6460;42.684;23.260;2024-02-15T08:35:38;95147.50;;;4.56;76.33
12793;BME280;6460;42.684;23.260;2024-02-15T08:38:07;95150.94;;;4.57;75.39
12793;BME280;6460;42.684;23.260;2024-02-15T08:40:38;95149.06;;;4.57;75.99
12793;BME280;6460;42.684;23.260;2024-02-15T08:43:13;95145.44;;;4.53;75.52
12793;BME280;6460;42.684;23.260;2024-02-15T08:45:55;95138.84;;;4.73;76.69
12793;BME280;6460;42.684;23.260;2024-02-15T08:48:39;95137.97;;;4.86;75.88
12793;BME280;6460;42.684;23.260;2024-02-15T08:51:14;95137.69;;;4.88;74.47
12793;BME280;6460;42.684;23.260;2024-02-15T08:53:50;95127.53;;;4.98;75.09
12793;BME280;6460;42.684;23.260;2024-02-15T08:56:23;95140.84;;;4.98;75.05
12793;BME280;6460;42.684;23.260;2024-02-15T08:59:16;95135.94;;;4.83;75.64
12793;BME280;6460;42.684;23.260;2024-02-15T09:02:00;95135.28;;;5.08;76.36
12793;BME280;6460;42.684;23.260;2024-02-15T09:04:36;95137.16;;;5.47;74.46
12793;BME280;6460;42.684;23.260;2024-02-15T09:07:11;95137.97;;;5.65;73.42
12793;BME280;6460;42.684;23.260;2024-02-15T09:09:41;95127.94;;;5.62;72.56
12793;BME280;6460;42.684;23.260;2024-02-15T09:12:10;95133.59;;;5.69;72.07
12793;BME280;6460;42.684;23.260;2024-02-15T09:14:48;95119.63;;;5.63;71.30
12793;BME280;6460;42.684;23.260;2024-02-15T09:17:17;95121.38;;;5.68;71.41
12793;BME280;6460;42.684;23.260;2024-02-15T09:20:24;95125.69;;;5.86;71.21
12793;BME280;6460;42.684;23.260;2024-02-15T09:23:31;95123.34;;;6.10;70.76
12793;BME280;6460;42.684;23.260;2024-02-15T09:26:03;95122.72;;;6.30;68.84
12793;BME280;6460;42.684;23.260;2024-02-15T09:28:39;95123.50;;;6.31;68.83
12793;BME280;6460;42.684;23.260;2024-02-15T09:31:13;95120.38;;;6.20;69.46
12793;BME280;6460;42.684;23.260;2024-02-15T09:33:47;95112.81;;;6.39;68.97
12793;BME280;6460;42.684;23.260;2024-02-15T09:36:16;95113.16;;;6.38;67.68
12793;BME280;6460;42.684;23.260;2024-02-15T09:39:15;95109.69;;;6.29;67.16
12793;BME280;6460;42.684;23.260;2024-02-15T09:41:43;95103.69;;;6.66;66.06
12793;BME280;6460;42.684;23.260;2024-02-15T09:44:11;95113.28;;;6.59;65.85
12793;BME280;6460;42.684;23.260;2024-02-15T09:46:43;95107.31;;;6.53;67.16
12793;BME280;6460;42.684;23.260;2024-02-15T09:49:12;95104.13;;;6.77;65.15
12793;BME280;6460;42.684;23.260;2024-02-15T09:51:40;95101.47;;;7.23;64.20
12793;BME280;6460;42.684;23.260;2024-02-15T09:54:11;95093.41;;;7.32;61.55
12793;BME280;6460;42.684;23.260;2024-02-15T09:56:40;95100.84;;;7.26;61.39
12793;BME280;6460;42.684;23.260;2024-02-15T09:59:08;95091.97;;;7.34;60.29
12793;BME280;6460;42.684;23.260;2024-02-15T10:01:59;95103.81;;;7.25;62.45
12793;BME280;6460;42.684;23.260;2024-02-15T10:04:31;95094.84;;;7.29;61.54
12793;BME280;6460;42.684;23.260;2024-02-15T10:07:00;95090.31;;;7.59;60.45
12793;BME280;6460;42.684;23.260;2024-02-15T10:09:32;95081.72;;;7.95;58.99
12793;BME280;6460;42.684;23.260;2024-02-15T10:12:03;95091.25;;;7.55;59.80
12793;BME280;6460;42.684;23.260;2024-02-15T10:14:33;95090.44;;;7.33;60.07
12793;BME280;6460;42.684;23.260;2024-02-15T10:17:06;95085.25;;;7.28;61.12
12793;BME280;6460;42.684;23.260;2024-02-15T10:19:36;95071.69;;;7.63;59.49
12793;BME280;6460;42.684;23.260;2024-02-15T10:22:07;95073.38;;;7.47;59.97
12793;BME280;6460;42.684;23.260;2024-02-15T10:24:36;95062.13;;;8.03;59.16
12793;BME280;6460;42.684;23.260;2024-02-15T10:27:05;95068.59;;;8.02;57.82
12793;BME280;6460;42.684;23.260;2024-02-15T10:29:33;95052.63;;;8.35;72.02
12793;BME280;6460;42.684;23.260;2024-02-15T10:32:01;95063.50;;;8.50;59.01
12793;BME280;6460;42.684;23.260;2024-02-15T10:34:29;95070.09;;;7.91;58.72
12793;BME280;6460;42.684;23.260;2024-02-15T10:37:11;95057.63;;;7.95;60.64
12793;BME280;6460;42.684;23.260;2024-02-15T10:39:41;95060.19;;;8.12;60.14
12793;BME280;6460;42.684;23.260;2024-02-15T10:42:09;95045.25;;;8.23;57.28
12793;BME280;6460;42.684;23.260;2024-02-15T10:44:52;95051.16;;;7.96;59.34
12793;BME280;6460;42.684;23.260;2024-02-15T10:47:22;95043.41;;;8.03;59.32
12793;BME280;6460;42.684;23.260;2024-02-15T10:49:51;95042.75;;;7.85;59.18
12793;BME280;6460;42.684;23.260;2024-02-15T10:52:23;95043.22;;;8.29;59.14
12793;BME280;6460;42.684;23.260;2024-02-15T10:54:59;95051.31;;;7.99;57.38
12793;BME280;6460;42.684;23.260;2024-02-15T10:57:31;95042.03;;;7.97;58.13
12793;BME280;6460;42.684;23.260;2024-02-15T10:59:59;95043.34;;;8.32;57.50
12793;BME280;6460;42.684;23.260;2024-02-15T11:02:37;95039.84;;;8.65;53.66
12793;BME280;6460;42.684;23.260;2024-02-15T11:05:08;95037.50;;;9.08;52.82
12793;BME280;6460;42.684;23.260;2024-02-15T11:07:37;95026.09;;;9.35;50.90
12793;BME280;6460;42.684;23.260;2024-02-15T11:10:10;95029.22;;;9.13;50.40
12793;BME280;6460;42.684;23.260;2024-02-15T11:12:43;95024.63;;;9.50;50.24
12793;BME280;6460;42.684;23.260;2024-02-15T11:15:43;95026.31;;;9.18;49.60
12793;BME280;6460;42.684;23.260;2024-02-15T11:21:00;95023.63;;;9.30;49.92
12793;BME280;6460;42.684;23.260;2024-02-15T11:23:28;95013.22;;;9.65;48.76
12793;BME280;6460;42.684;23.260;2024-02-15T11:26:03;95013.66;;;10.07;49.11
12793;BME280;6460;42.684;23.260;2024-02-15T11:28:38;95019.66;;;9.88;46.85
12793;BME280;6460;42.684;23.260;2024-02-15T11:31:09;95009.06;;;9.68;48.71
12793;BME280;6460;42.684;23.260;2024-02-15T11:33:38;95017.91;;;10.08;46.85
12793;BME280;6460;42.684;23.260;2024-02-15T11:36:06;95006.50;;;9.99;46.51
12793;BME280;6460;42.684;23.260;2024-02-15T11:38:34;95005.69;;;10.23;46.76
12793;BME280;6460;42.684;23.260;2024-02-15T11:41:05;95009.66;;;10.56;46.23
12793;BME280;6460;42.684;23.260;2024-02-15T11:43:48;94995.88;;;10.15;46.45
12793;BME280;6460;42.684;23.260;2024-02-15T11:46:23;95007.88;;;10.05;46.51
12793;BME280;6460;42.684;23.260;2024-02-15T11:48:55;95009.06;;;9.68;48.20
12793;BME280;6460;42.684;23.260;2024-02-15T11:51:30;95003.28;;;9.93;47.92
12793;BME280;6460;42.684;23.260;2024-02-15T11:54:06;94995.47;;;10.28;46.22
12793;BME280;6460;42.684;23.260;2024-02-15T11:57:00;94997.72;;;10.26;46.43
12793;BME280;6460;42.684;23.260;2024-02-15T11:59:42;94994.03;;;10.90;45.74
12793;BME280;6460;42.684;23.260;2024-02-15T12:02:35;94991.56;;;10.69;45.27
12793;BME280;6460;42.684;23.260;2024-02-15T12:05:20;94986.81;;;10.94;46.13
12793;BME280;6460;42.684;23.260;2024-02-15T12:08:05;94987.31;;;11.65;44.19
12793;BME280;6460;42.684;23.260;2024-02-15T12:10:58;94985.75;;;11.45;43.97
12793;BME280;6460;42.684;23.260;2024-02-15T12:17:09;94978.06;;;11.63;42.64
12793;BME280;6460;42.684;23.260;2024-02-15T12:19:55;94966.50;;;11.62;42.52
12793;BME280;6460;42.684;23.260;2024-02-15T12:22:26;94970.69;;;11.60;43.96
12793;BME280;6460;42.684;23.260;2024-02-15T12:24:55;94963.78;;;11.97;42.17
12793;BME280;6460;42.684;23.260;2024-02-15T12:27:23;94972.59;;;11.94;42.07
12793;BME280;6460;42.684;23.260;2024-02-15T12:29:54;94967.69;;;12.00;41.67
12793;BME280;6460;42.684;23.260;2024-02-15T12:32:28;94968.19;;;11.51;42.84
12793;BME280;6460;42.684;23.260;2024-02-15T12:35:10;94970.06;;;11.66;43.50
12793;BME280;6460;42.684;23.260;2024-02-15T12:38:01;94965.69;;;11.78;42.92
12793;BME280;6460;42.684;23.260;2024-02-15T12:40:31;94955.69;;;12.36;42.21
12793;BME280;6460;42.684;23.260;2024-02-15T12:42:59;94952.19;;;12.54;41.56
12793;BME280;6460;42.684;23.260;2024-02-15T12:45:27;94962.66;;;12.17;41.79
12793;BME280;6460;42.684;23.260;2024-02-15T12:47:57;94959.19;;;12.17;41.70
12793;BME280;6460;42.684;23.260;2024-02-15T12:50:28;94957.06;;;12.26;41.38
12793;BME280;6460;42.684;23.260;2024-02-15T12:52:55;94955.25;;;10.91;45.47
12793;BME280;6460;42.684;23.260;2024-02-15T12:55:29;94940.00;;;11.80;43.40
12793;BME280;6460;42.684;23.260;2024-02-15T12:58:00;94952.22;;;11.78;43.21
12793;BME280;6460;42.684;23.260;2024-02-15T13:00:35;94951.88;;;10.94;44.97
12793;BME280;6460;42.684;23.260;2024-02-15T13:06:15;94950.09;;;11.52;43.61
12793;BME280;6460;42.684;23.260;2024-02-15T13:08:44;94943.44;;;10.95;44.68
12793;BME280;6460;42.684;23.260;2024-02-15T13:11:26;94945.03;;;11.66;43.44
12793;BME280;6460;42.684;23.260;2024-02-15T13:13:54;94941.59;;;11.85;42.96
12793;BME280;6460;42.684;23.260;2024-02-15T13:16:22;94942.25;;;12.16;42.91
12793;BME280;6460;42.684;23.260;2024-02-15T13:18:50;94935.09;;;12.24;42.60
12793;BME280;6460;42.684;23.260;2024-02-15T13:21:22;94940.13;;;11.87;43.01
12793;BME280;6460;42.684;23.260;2024-02-15T13:23:57;94931.72;;;12.72;40.62
12793;BME280;6460;42.684;23.260;2024-02-15T13:26:25;94932.41;;;13.15;40.18
12793;BME280;6460;42.684;23.260;2024-02-15T13:28:55;94927.44;;;12.94;39.35
12793;BME280;6460;42.684;23.260;2024-02-15T13:31:24;94924.34;;;12.69;40.72
12793;BME280;6460;42.684;23.260;2024-02-15T13:33:53;94926.22;;;12.24;40.79
12793;BME280;6460;42.684;23.260;2024-02-15T13:36:22;94915.28;;;13.56;39.69
12793;BME280;6460;42.684;23.260;2024-02-15T13:38:50;94918.75;;;13.04;39.27
12793;BME280;6460;42.684;23.260;2024-02-15T13:41:19;94922.94;;;13.02;39.50
12793;BME280;6460;42.684;23.260;2024-02-15T13:43:47;94917.44;;;12.95;40.30
12793;BME280;6460;42.684;23.260;2024-02-15T13:46:15;94910.94;;;13.22;39.76
12793;BME280;6460;42.684;23.260;2024-02-15T13:48:45;94911.41;;;13.84;38.56
12793;BME280;6460;42.684;23.260;2024-02-15T13:51:17;94911.06;;;14.22;37.48
12793;BME280;6460;42.684;23.260;2024-02-15T13:54:07;94902.84;;;14.11;37.57
12793;BME280;6460;42.684;23.260;2024-02-15T13:56:35;94914.09;;;14.50;36.64
12793;BME280;6460;42.684;23.260;2024-02-15T13:59:03;94903.41;;;14.27;36.49